sensor_id;sensor_type;location;lat;lon;timestamp;P1;durP1;ratioP1;P2;durP2;ratioP2
60308;SDS011;50313;52.894;6.492;2022-08-05T00:02:23;1.00;;;0.90;;
60308;SDS011;50313;52.894;6.492;2022-08-05T00:04:49;1.95;;;1.15;;
60308;SDS011;50313;52.894;6.492;2022-08-05T00:07:15;6.75;;;1.25;;
60308;SDS011;50313;52.894;6.492;2022-08-05T00:09:40;1.95;;;0.65;;
60308;SDS011;50313;52.894;6.492;2022-08-05T00:12:06;0.38;;;0.38;;
60308;SDS011;50313;52.894;6.492;2022-08-05T00:14:32;0.85;;;0.68;;
60308;SDS011;50313;52.894;6.492;2022-08-05T00:16:58;0.57;;;0.40;;
60308;SDS011;50313;52.894;6.492;2022-08-05T00:19:23;1.15;;;0.95;;
60308;SDS011;50313;52.894;6.492;2022-08-05T00:21:50;0.43;;;0.40;;
60308;SDS011;50313;52.894;6.492;2022-08-05T00:24:16;3.50;;;0.90;;
60308;SDS011;50313;52.894;6.492;2022-08-05T00:26:41;1.23;;;0.80;;
60308;SDS011;50313;52.894;6.492;2022-08-05T00:29:07;0.63;;;0.63;;
60308;SDS011;50313;52.894;6.492;2022-08-05T00:31:33;5.00;;;0.95;;
60308;SDS011;50313;52.894;6.492;2022-08-05T00:33:58;0.35;;;0.30;;
60308;SDS011;50313;52.894;6.492;2022-08-05T00:36:24;0.38;;;0.38;;
60308;SDS011;50313;52.894;6.492;2022-08-05T00:38:50;1.45;;;0.88;;
60308;SDS011;50313;52.894;6.492;2022-08-05T00:41:37;1.27;;;0.75;;
60308;SDS011;50313;52.894;6.492;2022-08-05T00:44:02;1.77;;;0.82;;
60308;SDS011;50313;52.894;6.492;2022-08-05T00:46:28;0.47;;;0.47;;
60308;SDS011;50313;52.894;6.492;2022-08-05T00:48:53;4.35;;;1.25;;
60308;SDS011;50313;52.894;6.492;2022-08-05T00:51:19;6.88;;;1.98;;
60308;SDS011;50313;52.894;6.492;2022-08-05T00:53:46;1.00;;;0.45;;
60308;SDS011;50313;52.894;6.492;2022-08-05T00:56:13;0.52;;;0.52;;
60308;SDS011;50313;52.894;6.492;2022-08-05T00:58:40;1.17;;;0.65;;
60308;SDS011;50313;52.894;6.492;2022-08-05T01:01:06;2.70;;;0.98;;
60308;SDS011;50313;52.894;6.492;2022-08-05T01:03:31;1.80;;;0.80;;
60308;SDS011;50313;52.894;6.492;2022-08-05T01:05:57;1.17;;;0.93;;
60308;SDS011;50313;52.894;6.492;2022-08-05T01:08:23;0.73;;;0.52;;
60308;SDS011;50313;52.894;6.492;2022-08-05T01:16:20;1.30;;;1.20;;
60308;SDS011;50313;52.894;6.492;2022-08-05T01:18:54;0.70;;;0.70;;
60308;SDS011;50313;52.894;6.492;2022-08-05T01:26:59;0.85;;;0.55;;
60308;SDS011;50313;52.894;6.492;2022-08-05T01:29:30;2.42;;;0.40;;
60308;SDS011;50313;52.894;6.492;2022-08-05T01:32:02;0.70;;;0.40;;
60308;SDS011;50313;52.894;6.492;2022-08-05T01:34:40;1.42;;;1.33;;
60308;SDS011;50313;52.894;6.492;2022-08-05T01:37:17;0.30;;;0.30;;
60308;SDS011;50313;52.894;6.492;2022-08-05T01:39:48;2.05;;;1.25;;
60308;SDS011;50313;52.894;6.492;2022-08-05T01:42:18;1.40;;;0.88;;
60308;SDS011;50313;52.894;6.492;2022-08-05T01:44:47;0.88;;;0.52;;
60308;SDS011;50313;52.894;6.492;2022-08-05T01:47:14;0.47;;;0.47;;
60308;SDS011;50313;52.894;6.492;2022-08-05T01:49:43;0.80;;;0.60;;
60308;SDS011;50313;52.894;6.492;2022-08-05T01:52:11;1.35;;;0.70;;
60308;SDS011;50313;52.894;6.492;2022-08-05T01:54:40;0.52;;;0.45;;
60308;SDS011;50313;52.894;6.492;2022-08-05T01:57:09;0.82;;;0.73;;
60308;SDS011;50313;52.894;6.492;2022-08-05T01:59:36;2.53;;;1.55;;
60308;SDS011;50313;52.894;6.492;2022-08-05T02:02:04;0.60;;;0.60;;
60308;SDS011;50313;52.894;6.492;2022-08-05T02:04:32;0.68;;;0.60;;
60308;SDS011;50313;52.894;6.492;2022-08-05T02:07:00;2.70;;;0.75;;
60308;SDS011;50313;52.894;6.492;2022-08-05T02:09:26;2.80;;;0.50;;
60308;SDS011;50313;52.894;6.492;2022-08-05T02:12:04;1.88;;;1.77;;
60308;SDS011;50313;52.894;6.492;2022-08-05T02:14:33;1.13;;;0.88;;
60308;SDS011;50313;52.894;6.492;2022-08-05T02:19:59;0.82;;;0.82;;
60308;SDS011;50313;52.894;6.492;2022-08-05T02:22:27;5.57;;;0.88;;
60308;SDS011;50313;52.894;6.492;2022-08-05T02:25:03;2.90;;;1.02;;
60308;SDS011;50313;52.894;6.492;2022-08-05T02:27:33;1.13;;;0.95;;
60308;SDS011;50313;52.894;6.492;2022-08-05T02:30:01;0.38;;;0.38;;
60308;SDS011;50313;52.894;6.492;2022-08-05T02:32:27;0.52;;;0.52;;
60308;SDS011;50313;52.894;6.492;2022-08-05T02:34:59;2.00;;;1.77;;
60308;SDS011;50313;52.894;6.492;2022-08-05T02:37:29;3.15;;;0.70;;
60308;SDS011;50313;52.894;6.492;2022-08-05T02:39:57;1.95;;;0.88;;
60308;SDS011;50313;52.894;6.492;2022-08-05T02:42:26;0.60;;;0.60;;
60308;SDS011;50313;52.894;6.492;2022-08-05T02:44:53;8.75;;;1.58;;
60308;SDS011;50313;52.894;6.492;2022-08-05T02:47:21;0.73;;;0.73;;
60308;SDS011;50313;52.894;6.492;2022-08-05T02:49:48;0.47;;;0.47;;
60308;SDS011;50313;52.894;6.492;2022-08-05T02:52:16;0.70;;;0.70;;
60308;SDS011;50313;52.894;6.492;2022-08-05T02:54:43;1.00;;;0.90;;
60308;SDS011;50313;52.894;6.492;2022-08-05T02:57:10;1.75;;;1.20;;
60308;SDS011;50313;52.894;6.492;2022-08-05T02:59:39;6.65;;;1.10;;
60308;SDS011;50313;52.894;6.492;2022-08-05T03:02:06;2.97;;;0.65;;
60308;SDS011;50313;52.894;6.492;2022-08-05T03:04:34;0.70;;;0.70;;
60308;SDS011;50313;52.894;6.492;2022-08-05T03:07:01;1.38;;;1.27;;
60308;SDS011;50313;52.894;6.492;2022-08-05T03:09:27;0.60;;;0.60;;
60308;SDS011;50313;52.894;6.492;2022-08-05T03:11:53;0.65;;;0.52;;
60308;SDS011;50313;52.894;6.492;2022-08-05T03:14:19;7.75;;;0.80;;
60308;SDS011;50313;52.894;6.492;2022-08-05T03:16:45;3.88;;;1.48;;
60308;SDS011;50313;52.894;6.492;2022-08-05T03:19:11;0.52;;;0.50;;
60308;SDS011;50313;52.894;6.492;2022-08-05T03:21:36;2.22;;;1.63;;
60308;SDS011;50313;52.894;6.492;2022-08-05T03:24:02;1.70;;;0.95;;
60308;SDS011;50313;52.894;6.492;2022-08-05T03:26:29;8.57;;;1.50;;
60308;SDS011;50313;52.894;6.492;2022-08-05T03:28:55;3.58;;;2.50;;
60308;SDS011;50313;52.894;6.492;2022-08-05T03:31:20;4.60;;;1.70;;
60308;SDS011;50313;52.894;6.492;2022-08-05T03:33:47;4.82;;;0.95;;
60308;SDS011;50313;52.894;6.492;2022-08-05T03:36:13;7.90;;;0.73;;
60308;SDS011;50313;52.894;6.492;2022-08-05T03:38:39;6.05;;;2.15;;
60308;SDS011;50313;52.894;6.492;2022-08-05T03:41:07;1.10;;;0.70;;
60308;SDS011;50313;52.894;6.492;2022-08-05T03:43:34;1.70;;;1.30;;
60308;SDS011;50313;52.894;6.492;2022-08-05T03:46:00;1.00;;;0.90;;
60308;SDS011;50313;52.894;6.492;2022-08-05T03:48:26;11.25;;;1.33;;
60308;SDS011;50313;52.894;6.492;2022-08-05T03:51:05;3.80;;;1.25;;
60308;SDS011;50313;52.894;6.492;2022-08-05T03:53:39;2.58;;;1.85;;
60308;SDS011;50313;52.894;6.492;2022-08-05T03:56:58;4.20;;;1.65;;
60308;SDS011;50313;52.894;6.492;2022-08-05T03:59:06;1.95;;;1.02;;
60308;SDS011;50313;52.894;6.492;2022-08-05T04:01:35;2.60;;;2.03;;
60308;SDS011;50313;52.894;6.492;2022-08-05T04:04:03;9.25;;;1.17;;
60308;SDS011;50313;52.894;6.492;2022-08-05T04:06:32;1.05;;;0.95;;
60308;SDS011;50313;52.894;6.492;2022-08-05T04:08:59;1.35;;;1.25;;
60308;SDS011;50313;52.894;6.492;2022-08-05T04:11:26;1.42;;;1.17;;
60308;SDS011;50313;52.894;6.492;2022-08-05T04:13:52;1.55;;;1.45;;
60308;SDS011;50313;52.894;6.492;2022-08-05T04:16:19;4.82;;;1.17;;
60308;SDS011;50313;52.894;6.492;2022-08-05T04:18:45;1.17;;;1.08;;
60308;SDS011;50313;52.894;6.492;2022-08-05T04:21:11;2.17;;;1.25;;
60308;SDS011;50313;52.894;6.492;2022-08-05T04:23:37;1.30;;;1.20;;
60308;SDS011;50313;52.894;6.492;2022-08-05T04:26:03;1.60;;;1.50;;
60308;SDS011;50313;52.894;6.492;2022-08-05T04:28:29;1.27;;;1.00;;
60308;SDS011;50313;52.894;6.492;2022-08-05T04:30:55;2.53;;;1.25;;
60308;SDS011;50313;52.894;6.492;2022-08-05T04:33:21;2.33;;;1.60;;
60308;SDS011;50313;52.894;6.492;2022-08-05T04:35:47;6.45;;;1.83;;
60308;SDS011;50313;52.894;6.492;2022-08-05T04:38:13;0.63;;;0.60;;
60308;SDS011;50313;52.894;6.492;2022-08-05T04:40:39;7.75;;;1.35;;
60308;SDS011;50313;52.894;6.492;2022-08-05T04:43:05;4.97;;;1.30;;
60308;SDS011;50313;52.894;6.492;2022-08-05T04:45:31;2.92;;;1.27;;
60308;SDS011;50313;52.894;6.492;2022-08-05T04:48:08;3.63;;;1.50;;
60308;SDS011;50313;52.894;6.492;2022-08-05T04:50:42;1.35;;;0.80;;
60308;SDS011;50313;52.894;6.492;2022-08-05T04:53:10;1.00;;;0.82;;
60308;SDS011;50313;52.894;6.492;2022-08-05T04:55:37;5.53;;;0.93;;
60308;SDS011;50313;52.894;6.492;2022-08-05T04:58:04;1.52;;;1.40;;
60308;SDS011;50313;52.894;6.492;2022-08-05T05:00:31;2.17;;;1.05;;
60308;SDS011;50313;52.894;6.492;2022-08-05T05:02:57;1.55;;;1.33;;
60308;SDS011;50313;52.894;6.492;2022-08-05T05:05:23;5.10;;;2.05;;
60308;SDS011;50313;52.894;6.492;2022-08-05T05:07:49;2.05;;;1.95;;
60308;SDS011;50313;52.894;6.492;2022-08-05T05:10:14;0.85;;;0.85;;
60308;SDS011;50313;52.894;6.492;2022-08-05T05:12:40;1.70;;;1.33;;
60308;SDS011;50313;52.894;6.492;2022-08-05T05:15:06;1.67;;;1.58;;
60308;SDS011;50313;52.894;6.492;2022-08-05T05:17:35;4.22;;;1.10;;
60308;SDS011;50313;52.894;6.492;2022-08-05T05:20:06;1.35;;;1.25;;
60308;SDS011;50313;52.894;6.492;2022-08-05T05:22:33;1.42;;;0.95;;
60308;SDS011;50313;52.894;6.492;2022-08-05T05:24:59;4.53;;;1.98;;
60308;SDS011;50313;52.894;6.492;2022-08-05T05:27:28;1.48;;;1.20;;
60308;SDS011;50313;52.894;6.492;2022-08-05T05:29:55;0.70;;;0.70;;
60308;SDS011;50313;52.894;6.492;2022-08-05T05:32:20;3.65;;;2.20;;
60308;SDS011;50313;52.894;6.492;2022-08-05T05:34:46;3.10;;;0.80;;
60308;SDS011;50313;52.894;6.492;2022-08-05T05:37:12;0.73;;;0.68;;
60308;SDS011;50313;52.894;6.492;2022-08-05T05:39:39;2.80;;;1.17;;
60308;SDS011;50313;52.894;6.492;2022-08-05T05:42:05;2.75;;;1.17;;
60308;SDS011;50313;52.894;6.492;2022-08-05T05:44:31;1.52;;;1.15;;
60308;SDS011;50313;52.894;6.492;2022-08-05T05:46:56;1.25;;;0.90;;
60308;SDS011;50313;52.894;6.492;2022-08-05T05:49:22;0.50;;;0.50;;
60308;SDS011;50313;52.894;6.492;2022-08-05T05:51:48;1.75;;;1.48;;
60308;SDS011;50313;52.894;6.492;2022-08-05T05:54:13;1.73;;;1.20;;
60308;SDS011;50313;52.894;6.492;2022-08-05T05:56:39;1.85;;;1.50;;
60308;SDS011;50313;52.894;6.492;2022-08-05T05:59:05;3.65;;;1.45;;
60308;SDS011;50313;52.894;6.492;2022-08-05T06:01:31;1.58;;;1.33;;
60308;SDS011;50313;52.894;6.492;2022-08-05T06:04:02;2.40;;;1.50;;
60308;SDS011;50313;52.894;6.492;2022-08-05T06:06:28;1.98;;;1.73;;
60308;SDS011;50313;52.894;6.492;2022-08-05T06:08:54;1.55;;;1.13;;
60308;SDS011;50313;52.894;6.492;2022-08-05T06:11:19;8.63;;;1.50;;
60308;SDS011;50313;52.894;6.492;2022-08-05T06:13:45;1.08;;;0.73;;
60308;SDS011;50313;52.894;6.492;2022-08-05T06:16:11;3.72;;;1.35;;
60308;SDS011;50313;52.894;6.492;2022-08-05T06:18:36;0.57;;;0.50;;
60308;SDS011;50313;52.894;6.492;2022-08-05T06:21:02;2.58;;;1.05;;
60308;SDS011;50313;52.894;6.492;2022-08-05T06:23:28;1.50;;;1.05;;
60308;SDS011;50313;52.894;6.492;2022-08-05T06:25:56;1.17;;;0.75;;
60308;SDS011;50313;52.894;6.492;2022-08-05T06:28:21;1.23;;;1.13;;
60308;SDS011;50313;52.894;6.492;2022-08-05T06:30:47;2.05;;;0.98;;
60308;SDS011;50313;52.894;6.492;2022-08-05T06:33:13;2.10;;;0.98;;
60308;SDS011;50313;52.894;6.492;2022-08-05T06:35:39;1.55;;;1.08;;
60308;SDS011;50313;52.894;6.492;2022-08-05T06:38:04;1.40;;;1.17;;
60308;SDS011;50313;52.894;6.492;2022-08-05T06:40:30;1.23;;;0.98;;
60308;SDS011;50313;52.894;6.492;2022-08-05T06:42:56;2.28;;;1.00;;
60308;SDS011;50313;52.894;6.492;2022-08-05T06:45:21;3.08;;;1.60;;
60308;SDS011;50313;52.894;6.492;2022-08-05T06:47:47;1.23;;;1.05;;
60308;SDS011;50313;52.894;6.492;2022-08-05T06:50:13;4.35;;;0.95;;
60308;SDS011;50313;52.894;6.492;2022-08-05T06:52:39;0.60;;;0.60;;
60308;SDS011;50313;52.894;6.492;2022-08-05T06:55:05;13.85;;;2.85;;
60308;SDS011;50313;52.894;6.492;2022-08-05T06:57:31;7.05;;;1.35;;
60308;SDS011;50313;52.894;6.492;2022-08-05T06:59:57;0.40;;;0.40;;
60308;SDS011;50313;52.894;6.492;2022-08-05T07:02:23;5.55;;;0.90;;
60308;SDS011;50313;52.894;6.492;2022-08-05T07:04:48;3.47;;;0.88;;
60308;SDS011;50313;52.894;6.492;2022-08-05T07:07:14;1.13;;;0.50;;
60308;SDS011;50313;52.894;6.492;2022-08-05T07:09:40;0.50;;;0.50;;
60308;SDS011;50313;52.894;6.492;2022-08-05T07:12:06;0.50;;;0.50;;
60308;SDS011;50313;52.894;6.492;2022-08-05T07:14:32;1.13;;;1.02;;
60308;SDS011;50313;52.894;6.492;2022-08-05T07:17:17;0.82;;;0.82;;
60308;SDS011;50313;52.894;6.492;2022-08-05T07:19:42;0.70;;;0.63;;
60308;SDS011;50313;52.894;6.492;2022-08-05T07:22:08;0.28;;;0.28;;
60308;SDS011;50313;52.894;6.492;2022-08-05T07:24:34;0.60;;;0.55;;
60308;SDS011;50313;52.894;6.492;2022-08-05T07:26:59;5.30;;;0.40;;
60308;SDS011;50313;52.894;6.492;2022-08-05T07:29:25;0.30;;;0.30;;
60308;SDS011;50313;52.894;6.492;2022-08-05T07:31:51;1.05;;;0.50;;
60308;SDS011;50313;52.894;6.492;2022-08-05T07:34:16;1.35;;;0.52;;
60308;SDS011;50313;52.894;6.492;2022-08-05T07:36:42;1.13;;;0.80;;
60308;SDS011;50313;52.894;6.492;2022-08-05T07:39:08;1.45;;;0.93;;
60308;SDS011;50313;52.894;6.492;2022-08-05T07:41:34;4.38;;;0.80;;
60308;SDS011;50313;52.894;6.492;2022-08-05T07:44:00;4.22;;;0.65;;
60308;SDS011;50313;52.894;6.492;2022-08-05T07:46:28;0.70;;;0.45;;
60308;SDS011;50313;52.894;6.492;2022-08-05T07:48:55;6.13;;;0.77;;
60308;SDS011;50313;52.894;6.492;2022-08-05T07:51:22;4.90;;;0.68;;
60308;SDS011;50313;52.894;6.492;2022-08-05T07:53:48;0.35;;;0.35;;
60308;SDS011;50313;52.894;6.492;2022-08-05T07:56:14;0.32;;;0.32;;
60308;SDS011;50313;52.894;6.492;2022-08-05T07:58:40;3.42;;;0.75;;
60308;SDS011;50313;52.894;6.492;2022-08-05T08:01:05;0.60;;;0.40;;
60308;SDS011;50313;52.894;6.492;2022-08-05T08:03:31;1.48;;;0.73;;
60308;SDS011;50313;52.894;6.492;2022-08-05T08:05:57;0.98;;;0.50;;
60308;SDS011;50313;52.894;6.492;2022-08-05T08:08:23;0.73;;;0.50;;
60308;SDS011;50313;52.894;6.492;2022-08-05T08:10:48;0.65;;;0.43;;
60308;SDS011;50313;52.894;6.492;2022-08-05T08:13:14;0.77;;;0.73;;
60308;SDS011;50313;52.894;6.492;2022-08-05T08:15:40;2.53;;;0.55;;
60308;SDS011;50313;52.894;6.492;2022-08-05T08:18:06;0.98;;;0.60;;
60308;SDS011;50313;52.894;6.492;2022-08-05T08:20:32;0.38;;;0.38;;
60308;SDS011;50313;52.894;6.492;2022-08-05T08:22:58;3.60;;;0.73;;
60308;SDS011;50313;52.894;6.492;2022-08-05T08:25:24;0.85;;;0.30;;
60308;SDS011;50313;52.894;6.492;2022-08-05T08:27:53;1.08;;;0.80;;
60308;SDS011;50313;52.894;6.492;2022-08-05T08:30:19;2.28;;;0.52;;
60308;SDS011;50313;52.894;6.492;2022-08-05T08:32:45;3.30;;;1.00;;
60308;SDS011;50313;52.894;6.492;2022-08-05T08:35:11;0.30;;;0.30;;
60308;SDS011;50313;52.894;6.492;2022-08-05T08:37:36;0.40;;;0.30;;
60308;SDS011;50313;52.894;6.492;2022-08-05T08:40:02;0.88;;;0.73;;
60308;SDS011;50313;52.894;6.492;2022-08-05T08:42:29;0.50;;;0.50;;
60308;SDS011;50313;52.894;6.492;2022-08-05T08:44:56;0.30;;;0.30;;
60308;SDS011;50313;52.894;6.492;2022-08-05T08:47:23;1.85;;;0.70;;
60308;SDS011;50313;52.894;6.492;2022-08-05T08:49:51;0.65;;;0.30;;
60308;SDS011;50313;52.894;6.492;2022-08-05T08:52:20;0.68;;;0.50;;
60308;SDS011;50313;52.894;6.492;2022-08-05T08:54:49;0.30;;;0.30;;
60308;SDS011;50313;52.894;6.492;2022-08-05T08:57:16;0.60;;;0.57;;
60308;SDS011;50313;52.894;6.492;2022-08-05T08:59:42;0.70;;;0.30;;
60308;SDS011;50313;52.894;6.492;2022-08-05T09:02:08;0.30;;;0.30;;
60308;SDS011;50313;52.894;6.492;2022-08-05T09:04:35;0.32;;;0.20;;
60308;SDS011;50313;52.894;6.492;2022-08-05T09:07:02;1.65;;;0.32;;
60308;SDS011;50313;52.894;6.492;2022-08-05T09:09:30;1.88;;;0.30;;
60308;SDS011;50313;52.894;6.492;2022-08-05T09:11:56;0.40;;;0.40;;
60308;SDS011;50313;52.894;6.492;2022-08-05T09:14:22;0.30;;;0.30;;
60308;SDS011;50313;52.894;6.492;2022-08-05T09:16:48;1.20;;;0.95;;
60308;SDS011;50313;52.894;6.492;2022-08-05T09:19:15;0.85;;;0.30;;
60308;SDS011;50313;52.894;6.492;2022-08-05T09:21:41;0.20;;;0.20;;
60308;SDS011;50313;52.894;6.492;2022-08-05T09:24:07;2.83;;;0.20;;
60308;SDS011;50313;52.894;6.492;2022-08-05T09:26:37;0.35;;;0.28;;
60308;SDS011;50313;52.894;6.492;2022-08-05T09:29:07;0.22;;;0.20;;
60308;SDS011;50313;52.894;6.492;2022-08-05T09:31:33;0.25;;;0.25;;
60308;SDS011;50313;52.894;6.492;2022-08-05T09:34:03;2.05;;;0.10;;
60308;SDS011;50313;52.894;6.492;2022-08-05T09:39:04;0.20;;;0.20;;
60308;SDS011;50313;52.894;6.492;2022-08-05T09:41:31;2.45;;;0.65;;
60308;SDS011;50313;52.894;6.492;2022-08-05T09:43:57;2.28;;;0.22;;
60308;SDS011;50313;52.894;6.492;2022-08-05T09:46:24;0.30;;;0.25;;
60308;SDS011;50313;52.894;6.492;2022-08-05T09:48:57;0.10;;;0.10;;
60308;SDS011;50313;52.894;6.492;2022-08-05T09:51:30;1.38;;;0.35;;
60308;SDS011;50313;52.894;6.492;2022-08-05T09:53:58;2.50;;;0.40;;
60308;SDS011;50313;52.894;6.492;2022-08-05T09:56:25;0.10;;;0.10;;
60308;SDS011;50313;52.894;6.492;2022-08-05T09:59:04;0.40;;;0.20;;
60308;SDS011;50313;52.894;6.492;2022-08-05T10:01:32;1.85;;;0.20;;
60308;SDS011;50313;52.894;6.492;2022-08-05T10:04:06;0.30;;;0.30;;
60308;SDS011;50313;52.894;6.492;2022-08-05T10:06:36;0.10;;;0.10;;
60308;SDS011;50313;52.894;6.492;2022-08-05T10:09:14;0.10;;;0.10;;
60308;SDS011;50313;52.894;6.492;2022-08-05T10:11:43;0.82;;;0.20;;
60308;SDS011;50313;52.894;6.492;2022-08-05T10:16:50;1.35;;;0.10;;
60308;SDS011;50313;52.894;6.492;2022-08-05T10:19:21;4.20;;;1.33;;
60308;SDS011;50313;52.894;6.492;2022-08-05T10:21:48;3.53;;;0.20;;
60308;SDS011;50313;52.894;6.492;2022-08-05T10:24:15;0.10;;;0.10;;
60308;SDS011;50313;52.894;6.492;2022-08-05T10:26:43;1.08;;;0.50;;
60308;SDS011;50313;52.894;6.492;2022-08-05T10:29:10;0.47;;;0.45;;
60308;SDS011;50313;52.894;6.492;2022-08-05T10:31:36;7.10;;;0.47;;
60308;SDS011;50313;52.894;6.492;2022-08-05T10:34:04;6.72;;;0.32;;
60308;SDS011;50313;52.894;6.492;2022-08-05T10:36:31;0.10;;;0.10;;
60308;SDS011;50313;52.894;6.492;2022-08-05T10:38:59;0.10;;;0.10;;
60308;SDS011;50313;52.894;6.492;2022-08-05T10:41:33;0.10;;;0.10;;
60308;SDS011;50313;52.894;6.492;2022-08-05T10:44:08;2.67;;;0.20;;
60308;SDS011;50313;52.894;6.492;2022-08-05T10:46:44;0.10;;;0.10;;
60308;SDS011;50313;52.894;6.492;2022-08-05T10:49:14;0.20;;;0.10;;
60308;SDS011;50313;52.894;6.492;2022-08-05T10:51:42;1.65;;;0.20;;
60308;SDS011;50313;52.894;6.492;2022-08-05T10:54:09;0.57;;;0.50;;
60308;SDS011;50313;52.894;6.492;2022-08-05T10:56:42;1.02;;;0.15;;
60308;SDS011;50313;52.894;6.492;2022-08-05T10:59:16;0.20;;;0.20;;
60308;SDS011;50313;52.894;6.492;2022-08-05T11:01:44;0.10;;;0.10;;
60308;SDS011;50313;52.894;6.492;2022-08-05T11:04:14;0.00;;;0.00;;
60308;SDS011;50313;52.894;6.492;2022-08-05T11:09:25;2.17;;;0.65;;
60308;SDS011;50313;52.894;6.492;2022-08-05T11:15:05;0.50;;;0.50;;
60308;SDS011;50313;52.894;6.492;2022-08-05T11:17:31;0.05;;;0.05;;
60308;SDS011;50313;52.894;6.492;2022-08-05T11:22:40;1.92;;;0.75;;
60308;SDS011;50313;52.894;6.492;2022-08-05T11:35:52;0.20;;;0.10;;
60308;SDS011;50313;52.894;6.492;2022-08-05T11:38:35;0.20;;;0.15;;
60308;SDS011;50313;52.894;6.492;2022-08-05T11:48:53;0.70;;;0.17;;
60308;SDS011;50313;52.894;6.492;2022-08-05T11:51:20;0.10;;;0.10;;
60308;SDS011;50313;52.894;6.492;2022-08-05T11:53:46;0.10;;;0.10;;
60308;SDS011;50313;52.894;6.492;2022-08-05T11:56:13;0.10;;;0.10;;
60308;SDS011;50313;52.894;6.492;2022-08-05T11:58:40;0.20;;;0.20;;
60308;SDS011;50313;52.894;6.492;2022-08-05T12:01:13;0.20;;;0.20;;
60308;SDS011;50313;52.894;6.492;2022-08-05T12:06:06;1.02;;;0.35;;
60308;SDS011;50313;52.894;6.492;2022-08-05T12:08:38;1.05;;;0.60;;
60308;SDS011;50313;52.894;6.492;2022-08-05T12:11:25;5.35;;;0.32;;
60308;SDS011;50313;52.894;6.492;2022-08-05T12:16:19;0.20;;;0.20;;
60308;SDS011;50313;52.894;6.492;2022-08-05T12:18:46;0.00;;;0.00;;
60308;SDS011;50313;52.894;6.492;2022-08-05T12:21:15;0.10;;;0.10;;
60308;SDS011;50313;52.894;6.492;2022-08-05T12:23:53;0.85;;;0.20;;
60308;SDS011;50313;52.894;6.492;2022-08-05T12:26:34;0.13;;;0.13;;
60308;SDS011;50313;52.894;6.492;2022-08-05T12:29:06;0.43;;;0.28;;
60308;SDS011;50313;52.894;6.492;2022-08-05T12:31:35;0.10;;;0.10;;
60308;SDS011;50313;52.894;6.492;2022-08-05T12:34:01;0.10;;;0.10;;
60308;SDS011;50313;52.894;6.492;2022-08-05T12:36:29;1.02;;;0.13;;
60308;SDS011;50313;52.894;6.492;2022-08-05T12:38:56;0.10;;;0.10;;
60308;SDS011;50313;52.894;6.492;2022-08-05T12:41:22;1.65;;;0.20;;
60308;SDS011;50313;52.894;6.492;2022-08-05T12:43:54;0.13;;;0.10;;
60308;SDS011;50313;52.894;6.492;2022-08-05T12:46:31;0.10;;;0.10;;
60308;SDS011;50313;52.894;6.492;2022-08-05T12:51:24;0.30;;;0.10;;
60308;SDS011;50313;52.894;6.492;2022-08-05T12:53:58;0.10;;;0.10;;
60308;SDS011;50313;52.894;6.492;2022-08-05T12:56:26;0.30;;;0.10;;
60308;SDS011;50313;52.894;6.492;2022-08-05T12:59:12;0.13;;;0.13;;
60308;SDS011;50313;52.894;6.492;2022-08-05T13:01:58;3.45;;;0.47;;
60308;SDS011;50313;52.894;6.492;2022-08-05T13:04:28;0.10;;;0.10;;
60308;SDS011;50313;52.894;6.492;2022-08-05T13:06:55;1.55;;;0.17;;
60308;SDS011;50313;52.894;6.492;2022-08-05T13:09:23;0.00;;;0.00;;
60308;SDS011;50313;52.894;6.492;2022-08-05T13:11:50;1.02;;;0.50;;
60308;SDS011;50313;52.894;6.492;2022-08-05T13:14:19;0.03;;;0.03;;
60308;SDS011;50313;52.894;6.492;2022-08-05T13:16:47;1.17;;;0.28;;
60308;SDS011;50313;52.894;6.492;2022-08-05T13:19:21;1.42;;;0.40;;
60308;SDS011;50313;52.894;6.492;2022-08-05T13:21:51;3.00;;;0.22;;
60308;SDS011;50313;52.894;6.492;2022-08-05T13:24:18;1.13;;;0.17;;
60308;SDS011;50313;52.894;6.492;2022-08-05T13:26:46;1.02;;;0.10;;
60308;SDS011;50313;52.894;6.492;2022-08-05T13:29:12;0.10;;;0.10;;
60308;SDS011;50313;52.894;6.492;2022-08-05T13:31:38;0.28;;;0.10;;
60308;SDS011;50313;52.894;6.492;2022-08-05T13:34:04;0.20;;;0.20;;
60308;SDS011;50313;52.894;6.492;2022-08-05T13:36:30;0.30;;;0.10;;
60308;SDS011;50313;52.894;6.492;2022-08-05T13:38:58;0.10;;;0.10;;
60308;SDS011;50313;52.894;6.492;2022-08-05T13:41:24;1.65;;;0.35;;
60308;SDS011;50313;52.894;6.492;2022-08-05T13:43:50;0.22;;;0.20;;
60308;SDS011;50313;52.894;6.492;2022-08-05T13:46:15;0.10;;;0.10;;
60308;SDS011;50313;52.894;6.492;2022-08-05T13:48:41;0.10;;;0.10;;
60308;SDS011;50313;52.894;6.492;2022-08-05T13:51:08;0.10;;;0.10;;
60308;SDS011;50313;52.894;6.492;2022-08-05T13:53:36;0.13;;;0.13;;
60308;SDS011;50313;52.894;6.492;2022-08-05T13:56:02;0.20;;;0.20;;
60308;SDS011;50313;52.894;6.492;2022-08-05T13:58:28;0.38;;;0.20;;
60308;SDS011;50313;52.894;6.492;2022-08-05T14:00:54;2.92;;;0.30;;
60308;SDS011;50313;52.894;6.492;2022-08-05T14:03:20;0.35;;;0.30;;
60308;SDS011;50313;52.894;6.492;2022-08-05T14:05:46;0.10;;;0.10;;
60308;SDS011;50313;52.894;6.492;2022-08-05T14:08:12;2.10;;;0.30;;
60308;SDS011;50313;52.894;6.492;2022-08-05T14:10:39;0.38;;;0.05;;
60308;SDS011;50313;52.894;6.492;2022-08-05T14:13:05;0.10;;;0.10;;
60308;SDS011;50313;52.894;6.492;2022-08-05T14:15:34;1.20;;;0.38;;
60308;SDS011;50313;52.894;6.492;2022-08-05T14:18:00;1.65;;;0.63;;
60308;SDS011;50313;52.894;6.492;2022-08-05T14:20:27;2.90;;;0.47;;
60308;SDS011;50313;52.894;6.492;2022-08-05T14:22:54;1.55;;;0.10;;
60308;SDS011;50313;52.894;6.492;2022-08-05T14:25:19;0.30;;;0.20;;
60308;SDS011;50313;52.894;6.492;2022-08-05T14:27:46;0.10;;;0.10;;
60308;SDS011;50313;52.894;6.492;2022-08-05T14:30:15;3.20;;;0.55;;
60308;SDS011;50313;52.894;6.492;2022-08-05T14:32:41;0.38;;;0.20;;
60308;SDS011;50313;52.894;6.492;2022-08-05T14:35:07;3.83;;;0.63;;
60308;SDS011;50313;52.894;6.492;2022-08-05T14:37:33;0.20;;;0.20;;
60308;SDS011;50313;52.894;6.492;2022-08-05T14:39:59;0.98;;;0.40;;
60308;SDS011;50313;52.894;6.492;2022-08-05T14:42:25;0.38;;;0.20;;
60308;SDS011;50313;52.894;6.492;2022-08-05T14:44:51;1.45;;;0.40;;
60308;SDS011;50313;52.894;6.492;2022-08-05T14:47:16;0.17;;;0.13;;
60308;SDS011;50313;52.894;6.492;2022-08-05T14:49:42;1.88;;;0.40;;
60308;SDS011;50313;52.894;6.492;2022-08-05T14:52:08;0.38;;;0.20;;
60308;SDS011;50313;52.894;6.492;2022-08-05T14:54:34;0.47;;;0.30;;
60308;SDS011;50313;52.894;6.492;2022-08-05T14:56:59;0.13;;;0.10;;
60308;SDS011;50313;52.894;6.492;2022-08-05T14:59:26;0.90;;;0.38;;
60308;SDS011;50313;52.894;6.492;2022-08-05T15:01:52;2.55;;;0.30;;
60308;SDS011;50313;52.894;6.492;2022-08-05T15:04:18;2.05;;;0.35;;
60308;SDS011;50313;52.894;6.492;2022-08-05T15:06:44;0.20;;;0.10;;
60308;SDS011;50313;52.894;6.492;2022-08-05T15:09:10;0.10;;;0.10;;
60308;SDS011;50313;52.894;6.492;2022-08-05T15:11:36;0.10;;;0.10;;
60308;SDS011;50313;52.894;6.492;2022-08-05T15:14:02;0.00;;;0.00;;
60308;SDS011;50313;52.894;6.492;2022-08-05T15:16:28;0.10;;;0.10;;
60308;SDS011;50313;52.894;6.492;2022-08-05T15:18:55;0.10;;;0.10;;
60308;SDS011;50313;52.894;6.492;2022-08-05T15:21:21;0.85;;;0.30;;
60308;SDS011;50313;52.894;6.492;2022-08-05T15:23:47;0.03;;;0.03;;
60308;SDS011;50313;52.894;6.492;2022-08-05T15:26:13;0.20;;;0.10;;
60308;SDS011;50313;52.894;6.492;2022-08-05T15:28:41;0.13;;;0.10;;
60308;SDS011;50313;52.894;6.492;2022-08-05T15:31:08;0.25;;;0.10;;
60308;SDS011;50313;52.894;6.492;2022-08-05T15:33:33;0.20;;;0.20;;
60308;SDS011;50313;52.894;6.492;2022-08-05T15:35:59;0.70;;;0.30;;
60308;SDS011;50313;52.894;6.492;2022-08-05T15:38:26;0.32;;;0.00;;
60308;SDS011;50313;52.894;6.492;2022-08-05T15:40:52;0.10;;;0.10;;
60308;SDS011;50313;52.894;6.492;2022-08-05T15:43:17;1.55;;;0.10;;
60308;SDS011;50313;52.894;6.492;2022-08-05T15:45:43;0.10;;;0.10;;